メインページ
METAR-TAF:

METAR-TAF

空港 :

オスロ空港

オスロ, ノルウェー

緯度: 60-12N, 経度: 011-05E, 海抜: 208m

現時点の気象観測

当レポートは11分前の10:20(UTC)に作成
の風 10kt、北/北西から北/北東の間で変化する
気温 14°C
湿度 58%
気圧 1010 hPa
視程10km以上
高度3500ftの雲は散在している
高度16000ftの千切れ雲あり

METAR: ENGM 201020Z 36010KT 330V030 9999 SCT035 BKN160 14/06 Q1010 NOSIG

時間: 12:31 (10:31 UTC)

予報

予報は20日の 06時(UTC)から 21日の 06時(UTC)まで有効
の風 8kt
視程10km以上
1,500メートル以下は雲なし、積乱雲なし

TAF: ENGM 2006/2106 36008KT CAVOK

4,000以上の空港の気象観測と天気予報(METAR報とTAF報)

利用可能な観測所は地図上に黄色い丸と赤い丸で示す。

丸の上にカーソルを重ねると観測所名を参照できる。

次にクリックすると気象観測と天気予報を参照できる。

マップの切り替え:黒色「×」印の緑ボタンをクリックして拡大、「-」印の緑ボタンをクリックして縮小、緑色の三角印をクリックして隣りの地図に切り替え


METAR-TAF: